createdAt,value
2018-10-21T00:00:30.303Z,1023.88
2018-10-21T00:02:23.749Z,1023.83
2018-10-21T00:03:23.643Z,1023.87
2018-10-21T00:05:16.522Z,1023.93
2018-10-21T00:06:16.496Z,1023.97
2018-10-21T00:08:09.872Z,1023.92
2018-10-21T00:09:09.899Z,1023.91
2018-10-21T00:11:02.718Z,1023.85
2018-10-21T00:12:02.696Z,1023.89
2018-10-21T00:13:55.599Z,1023.87
2018-10-21T00:14:55.585Z,1023.86
2018-10-21T00:16:48.455Z,1023.89
2018-10-21T00:17:48.420Z,1023.97
2018-10-21T00:19:41.794Z,1024.01
2018-10-21T00:20:41.765Z,1024.01
2018-10-21T00:22:34.659Z,1024.06
2018-10-21T00:23:34.630Z,1024.07
2018-10-21T00:25:27.509Z,1024.03
2018-10-21T00:26:27.480Z,1024.06
2018-10-21T00:28:20.359Z,1024.06
2018-10-21T00:29:20.331Z,1024.08
2018-10-21T00:31:13.207Z,1024.07
2018-10-21T00:32:13.182Z,1024.05
2018-10-21T00:34:06.066Z,1024.03
2018-10-21T00:35:06.039Z,1024.04
2018-10-21T00:36:59.411Z,1024.03
2018-10-21T00:37:59.376Z,1023.99
2018-10-21T00:39:52.291Z,1024.04
2018-10-21T00:40:52.265Z,1024.04
2018-10-21T00:42:45.636Z,1024.02
2018-10-21T00:43:45.615Z,1024.00
2018-10-21T00:45:38.485Z,1024.03
2018-10-21T00:46:38.459Z,1024.05
2018-10-21T00:48:31.849Z,1024.06
2018-10-21T00:49:31.840Z,1024.05
2018-10-21T00:51:25.196Z,1023.99
2018-10-21T00:52:25.164Z,1023.98
2018-10-21T00:54:18.532Z,1023.98
2018-10-21T00:55:18.507Z,1023.99
2018-10-21T00:57:11.432Z,1023.98
2018-10-21T00:58:11.354Z,1024.01
2018-10-21T01:00:04.733Z,1024.05
2018-10-21T01:01:04.702Z,1024.04
2018-10-21T01:02:58.085Z,1024.04
2018-10-21T01:03:58.079Z,1024.04
2018-10-21T01:05:51.417Z,1024.04
2018-10-21T01:06:51.397Z,1024.06
2018-10-21T01:08:44.269Z,1024.11
2018-10-21T01:09:44.237Z,1024.13
2018-10-21T01:11:37.121Z,1024.15
2018-10-21T01:12:37.089Z,1024.19
2018-10-21T01:14:30.479Z,1024.19
2018-10-21T01:15:30.448Z,1024.24
2018-10-21T01:17:23.329Z,1024.28
2018-10-21T01:18:23.300Z,1024.29
2018-10-21T01:20:16.184Z,1024.23
2018-10-21T01:21:16.197Z,1024.24
2018-10-21T01:23:09.029Z,1024.27
2018-10-21T01:24:08.999Z,1024.27
2018-10-21T01:26:01.885Z,1024.27
2018-10-21T01:27:01.914Z,1024.25
2018-10-21T01:28:55.225Z,1024.19
2018-10-21T01:29:55.195Z,1024.17
2018-10-21T01:31:48.077Z,1024.20
2018-10-21T01:32:48.049Z,1024.16
2018-10-21T01:34:41.435Z,1024.13
2018-10-21T01:35:41.404Z,1024.09
2018-10-21T01:37:34.269Z,1024.09
2018-10-21T01:38:34.246Z,1024.07
2018-10-21T01:40:27.123Z,1024.04
2018-10-21T01:41:27.095Z,1024.02
2018-10-21T01:43:20.472Z,1023.99
2018-10-21T01:44:20.438Z,1024.02
2018-10-21T01:46:13.809Z,1024.01
2018-10-21T01:47:13.779Z,1024.06
2018-10-21T01:49:06.669Z,1023.98
2018-10-21T01:50:06.639Z,1023.95
2018-10-21T01:52:00.592Z,1023.88
2018-10-21T01:52:59.981Z,1023.86
2018-10-21T01:54:52.854Z,1023.93
2018-10-21T01:55:52.829Z,1023.97
2018-10-21T01:57:45.711Z,1023.96
2018-10-21T01:58:45.688Z,1023.92
2018-10-21T02:00:38.560Z,1023.91
2018-10-21T02:01:38.532Z,1023.96
2018-10-21T02:03:31.411Z,1023.93
2018-10-21T02:04:31.378Z,1023.90
2018-10-21T02:06:24.754Z,1023.90
2018-10-21T02:07:24.724Z,1023.88
2018-10-21T02:09:17.622Z,1023.94
2018-10-21T02:10:17.572Z,1023.94
2018-10-21T02:12:10.947Z,1023.93
2018-10-21T02:13:10.980Z,1023.92
2018-10-21T02:15:03.837Z,1023.90
2018-10-21T02:16:03.766Z,1023.91
2018-10-21T02:17:56.641Z,1023.88
2018-10-21T02:18:56.617Z,1023.90
2018-10-21T02:20:49.488Z,1023.84
2018-10-21T02:21:49.466Z,1023.82
2018-10-21T02:23:42.343Z,1023.78
2018-10-21T02:24:42.307Z,1023.78
2018-10-21T02:26:35.221Z,1023.73
2018-10-21T02:27:35.169Z,1023.74
2018-10-21T02:29:28.036Z,1023.75
2018-10-21T02:30:28.018Z,1023.73
2018-10-21T02:32:20.889Z,1023.78
2018-10-21T02:33:20.984Z,1023.85
2018-10-21T02:35:13.754Z,1023.85
2018-10-21T02:36:13.734Z,1023.87
2018-10-21T02:38:07.096Z,1023.91
2018-10-21T02:39:07.110Z,1023.90
2018-10-21T02:41:00.020Z,1023.91
2018-10-21T02:41:59.915Z,1023.90
2018-10-21T02:43:52.798Z,1023.90
2018-10-21T02:44:52.767Z,1023.95
2018-10-21T02:46:45.644Z,1023.90
2018-10-21T02:47:45.612Z,1023.94
2018-10-21T02:49:38.511Z,1023.97
2018-10-21T02:50:38.509Z,1024.00
2018-10-21T02:52:31.347Z,1024.03
2018-10-21T02:53:31.317Z,1024.04
2018-10-21T02:55:24.195Z,1024.00
2018-10-21T02:56:24.166Z,1023.97
2018-10-21T02:58:17.044Z,1023.98
2018-10-21T02:59:17.016Z,1023.93
2018-10-21T03:01:10.393Z,1023.96
2018-10-21T03:02:10.361Z,1023.91
2018-10-21T03:04:03.735Z,1023.93
2018-10-21T03:05:03.703Z,1023.93
2018-10-21T03:06:56.587Z,1023.91
2018-10-21T03:07:56.560Z,1023.92
2018-10-21T03:09:49.936Z,1023.95
2018-10-21T03:10:49.901Z,1023.91
2018-10-21T03:12:43.272Z,1023.93
2018-10-21T03:13:43.246Z,1023.94
2018-10-21T03:15:36.120Z,1023.91
2018-10-21T03:16:36.099Z,1023.89
2018-10-21T03:18:29.024Z,1023.84
2018-10-21T03:19:28.940Z,1023.86
2018-10-21T03:21:21.922Z,1023.84
2018-10-21T03:22:21.794Z,1023.88
2018-10-21T03:24:15.167Z,1023.85
2018-10-21T03:25:15.134Z,1023.85
2018-10-21T03:27:08.563Z,1023.92
2018-10-21T03:28:08.478Z,1023.94
2018-10-21T03:30:02.437Z,1023.93
2018-10-21T03:31:01.910Z,1023.93
2018-10-21T03:32:54.761Z,1023.88
2018-10-21T03:33:54.761Z,1023.85
2018-10-21T03:35:47.545Z,1023.80
2018-10-21T03:36:47.522Z,1023.81
2018-10-21T03:38:40.394Z,1023.86
2018-10-21T03:39:40.365Z,1023.81
2018-10-21T03:41:33.250Z,1023.80
2018-10-21T03:42:33.219Z,1023.77
2018-10-21T03:44:26.108Z,1023.79
2018-10-21T03:45:26.080Z,1023.74
2018-10-21T03:47:18.967Z,1023.66
2018-10-21T03:48:18.923Z,1023.69
2018-10-21T03:50:11.798Z,1023.71
2018-10-21T03:51:11.768Z,1023.75
2018-10-21T03:53:04.648Z,1023.77
2018-10-21T03:54:04.622Z,1023.76
2018-10-21T03:55:57.993Z,1023.83
2018-10-21T03:56:57.966Z,1023.86
2018-10-21T03:58:50.844Z,1023.85
2018-10-21T03:59:50.815Z,1023.86
2018-10-21T04:01:43.697Z,1023.85
2018-10-21T04:02:43.669Z,1023.80
2018-10-21T04:04:36.546Z,1023.82
2018-10-21T04:05:36.513Z,1023.77
2018-10-21T04:07:29.969Z,1023.79
2018-10-21T04:08:29.865Z,1023.82
2018-10-21T04:10:23.231Z,1023.84
2018-10-21T04:11:23.200Z,1023.81
2018-10-21T04:13:16.070Z,1023.84
2018-10-21T04:14:16.045Z,1023.75
2018-10-21T04:16:09.493Z,1023.74
2018-10-21T04:17:09.389Z,1023.76
2018-10-21T04:19:02.775Z,1023.71
2018-10-21T04:20:02.727Z,1023.75
2018-10-21T04:21:55.638Z,1023.68
2018-10-21T04:22:55.581Z,1023.66
2018-10-21T04:24:48.456Z,1023.61
2018-10-21T04:25:48.426Z,1023.64
2018-10-21T04:27:41.304Z,1023.63
2018-10-21T04:28:41.286Z,1023.62
2018-10-21T04:30:34.159Z,1023.59
2018-10-21T04:31:34.172Z,1023.57
2018-10-21T04:33:27.009Z,1023.56
2018-10-21T04:34:26.979Z,1023.54
2018-10-21T04:36:19.855Z,1023.55
2018-10-21T04:37:19.825Z,1023.53
2018-10-21T04:39:12.705Z,1023.47
2018-10-21T04:40:12.765Z,1023.44
2018-10-21T04:42:05.550Z,1023.39
2018-10-21T04:43:05.518Z,1023.37
2018-10-21T04:44:58.400Z,1023.36
2018-10-21T04:45:58.387Z,1023.33
2018-10-21T04:47:51.256Z,1023.32
2018-10-21T04:48:51.220Z,1023.34
2018-10-21T04:50:44.096Z,1023.30
2018-10-21T04:51:44.071Z,1023.26
2018-10-21T04:53:36.950Z,1023.22
2018-10-21T04:54:36.922Z,1023.12
2018-10-21T04:56:29.986Z,1023.19
2018-10-21T04:57:29.956Z,1023.12
2018-10-21T04:59:22.833Z,1023.14
2018-10-21T05:00:22.803Z,1023.18
2018-10-21T05:02:16.179Z,1023.15
2018-10-21T05:03:16.150Z,1023.17
2018-10-21T05:05:09.029Z,1023.19
2018-10-21T05:06:09.003Z,1023.18
2018-10-21T05:08:02.373Z,1023.20
2018-10-21T05:09:02.339Z,1023.17
2018-10-21T05:10:55.221Z,1023.20
2018-10-21T05:11:55.192Z,1023.21
2018-10-21T05:13:48.067Z,1023.21
2018-10-21T05:14:48.040Z,1023.22
2018-10-21T05:16:40.943Z,1023.25
2018-10-21T05:17:40.887Z,1023.23
2018-10-21T05:19:34.263Z,1023.21
2018-10-21T05:20:34.230Z,1023.18
2018-10-21T05:22:27.106Z,1023.18
2018-10-21T05:23:27.080Z,1023.13
2018-10-21T05:25:20.448Z,1023.11
2018-10-21T05:26:20.422Z,1023.11
2018-10-21T05:28:13.383Z,1023.09
2018-10-21T05:29:13.272Z,1023.11
2018-10-21T05:31:06.639Z,1023.08
2018-10-21T05:32:06.617Z,1023.03
2018-10-21T05:33:59.497Z,1023.04
2018-10-21T05:34:59.465Z,1023.06
2018-10-21T05:36:52.844Z,1023.03
2018-10-21T05:37:52.855Z,1023.02
2018-10-21T05:39:46.263Z,1023.05
2018-10-21T05:40:45.660Z,1023.10
2018-10-21T05:42:38.538Z,1023.12
2018-10-21T05:43:38.514Z,1023.12
2018-10-21T05:45:31.382Z,1023.12
2018-10-21T05:46:31.355Z,1023.12
2018-10-21T05:48:24.728Z,1023.14
2018-10-21T05:49:24.699Z,1023.19
2018-10-21T05:51:17.578Z,1023.19
2018-10-21T05:52:17.607Z,1023.14
2018-10-21T05:54:10.426Z,1023.15
2018-10-21T05:55:10.397Z,1023.18
2018-10-21T05:57:03.282Z,1023.23
2018-10-21T05:58:03.265Z,1023.21
2018-10-21T05:59:56.622Z,1023.22
2018-10-21T06:00:56.586Z,1023.21
2018-10-21T06:02:49.539Z,1023.23
2018-10-21T06:03:49.442Z,1023.22
2018-10-21T06:05:42.328Z,1023.30
2018-10-21T06:06:42.292Z,1023.27
2018-10-21T06:08:35.170Z,1023.30
2018-10-21T06:09:35.140Z,1023.30
2018-10-21T06:11:28.025Z,1023.26
2018-10-21T06:12:27.984Z,1023.25
2018-10-21T06:14:20.866Z,1023.25
2018-10-21T06:15:20.840Z,1023.22
2018-10-21T06:17:13.717Z,1023.26
2018-10-21T06:18:13.680Z,1023.23
2018-10-21T06:20:07.059Z,1023.30
2018-10-21T06:21:07.027Z,1023.32
2018-10-21T06:23:00.399Z,1023.32
2018-10-21T06:24:00.369Z,1023.31
2018-10-21T06:25:53.246Z,1023.35
2018-10-21T06:26:53.216Z,1023.35
2018-10-21T06:28:47.169Z,1023.36
2018-10-21T06:29:46.553Z,1023.39
2018-10-21T06:31:39.433Z,1023.45
2018-10-21T06:32:39.405Z,1023.46
2018-10-21T06:34:32.281Z,1023.43
2018-10-21T06:35:32.256Z,1023.45
2018-10-21T06:37:25.130Z,1023.42
2018-10-21T06:38:25.104Z,1023.40
2018-10-21T06:40:18.557Z,1023.46
2018-10-21T06:41:18.445Z,1023.41
2018-10-21T06:43:11.847Z,1023.40
2018-10-21T06:44:11.815Z,1023.41
2018-10-21T06:46:05.193Z,1023.48
2018-10-21T06:47:05.155Z,1023.45
2018-10-21T06:48:58.036Z,1023.42
2018-10-21T06:49:58.008Z,1023.44
2018-10-21T06:51:51.380Z,1023.44
2018-10-21T06:52:51.351Z,1023.45
2018-10-21T06:54:44.307Z,1023.44
2018-10-21T06:55:44.212Z,1023.49
2018-10-21T06:57:37.139Z,1023.52
2018-10-21T06:58:37.051Z,1023.55
2018-10-21T07:00:29.936Z,1023.58
2018-10-21T07:01:29.903Z,1023.55
2018-10-21T07:03:22.777Z,1023.66
2018-10-21T07:04:22.762Z,1023.66
2018-10-21T07:06:15.627Z,1023.69
2018-10-21T07:07:15.602Z,1023.72
2018-10-21T07:09:08.482Z,1023.73
2018-10-21T07:10:08.491Z,1023.72
2018-10-21T07:12:01.332Z,1023.68
2018-10-21T07:13:01.301Z,1023.79
2018-10-21T07:14:54.184Z,1023.81
2018-10-21T07:15:54.241Z,1023.79
2018-10-21T07:17:47.028Z,1023.82
2018-10-21T07:18:47.002Z,1023.84
2018-10-21T07:20:40.407Z,1023.88
2018-10-21T07:21:40.377Z,1023.87
2018-10-21T07:23:33.751Z,1023.91
2018-10-21T07:24:33.718Z,1023.88
2018-10-21T07:26:26.606Z,1023.91
2018-10-21T07:27:26.573Z,1023.94
2018-10-21T07:29:19.453Z,1023.92
2018-10-21T07:30:19.420Z,1023.95
2018-10-21T07:32:12.798Z,1024.01
2018-10-21T07:33:12.770Z,1023.99
2018-10-21T07:35:05.650Z,1024.05
2018-10-21T07:36:05.624Z,1024.00
2018-10-21T07:37:58.502Z,1024.07
2018-10-21T07:38:58.475Z,1024.05
2018-10-21T07:40:51.860Z,1024.06
2018-10-21T07:41:51.829Z,1024.08
2018-10-21T07:43:44.704Z,1024.06
2018-10-21T07:44:44.676Z,1024.08
2018-10-21T07:46:38.054Z,1024.04
2018-10-21T07:47:38.028Z,1024.08
2018-10-21T07:49:31.480Z,1024.15
2018-10-21T07:50:30.875Z,1024.09
2018-10-21T07:52:23.755Z,1024.14
2018-10-21T07:53:23.729Z,1024.14
2018-10-21T07:55:16.696Z,1024.09
2018-10-21T07:56:16.582Z,1024.09
2018-10-21T07:58:09.476Z,1024.09
2018-10-21T07:59:09.434Z,1024.12
2018-10-21T08:01:02.344Z,1024.09
2018-10-21T08:02:02.286Z,1024.10
2018-10-21T08:03:55.682Z,1024.10
2018-10-21T08:04:55.635Z,1024.09
2018-10-21T08:06:49.013Z,1024.13
2018-10-21T08:07:48.982Z,1024.13
2018-10-21T08:09:41.869Z,1024.13
2018-10-21T08:10:41.834Z,1024.12
2018-10-21T08:12:35.213Z,1024.09
2018-10-21T08:13:35.181Z,1024.07
2018-10-21T08:15:28.569Z,1024.08
2018-10-21T08:16:28.543Z,1024.11
2018-10-21T08:18:21.907Z,1024.08
2018-10-21T08:19:21.887Z,1024.09
2018-10-21T08:21:15.302Z,1024.11
2018-10-21T08:22:15.318Z,1024.11
2018-10-21T08:24:08.619Z,1024.13
2018-10-21T08:25:08.592Z,1024.09
2018-10-21T08:27:01.964Z,1024.01
2018-10-21T08:28:01.955Z,1024.03
2018-10-21T08:29:54.818Z,1024.01
2018-10-21T08:30:54.786Z,1023.99
2018-10-21T08:32:47.673Z,1024.00
2018-10-21T08:33:47.641Z,1024.02
2018-10-21T08:35:40.526Z,1023.98
2018-10-21T08:36:40.496Z,1024.00
2018-10-21T08:38:33.383Z,1023.96
2018-10-21T08:39:33.355Z,1023.99
2018-10-21T08:41:26.234Z,1023.95
2018-10-21T08:42:26.203Z,1023.93
2018-10-21T08:44:19.585Z,1023.97
2018-10-21T08:45:19.558Z,1023.97
2018-10-21T08:47:12.436Z,1023.97
2018-10-21T08:48:12.411Z,1023.96
2018-10-21T08:50:05.848Z,1023.94
2018-10-21T08:51:05.759Z,1023.96
2018-10-21T08:52:58.639Z,1023.92
2018-10-21T08:53:58.612Z,1023.95
2018-10-21T08:55:51.623Z,1023.95
2018-10-21T08:56:51.475Z,1023.99
2018-10-21T08:58:44.348Z,1023.96
2018-10-21T08:59:44.322Z,1023.96
2018-10-21T09:01:37.697Z,1023.97
2018-10-21T09:02:37.673Z,1023.98
2018-10-21T09:04:30.549Z,1023.94
2018-10-21T09:05:30.528Z,1023.94
2018-10-21T09:07:23.410Z,1023.91
2018-10-21T09:08:23.378Z,1023.92
2018-10-21T09:10:16.906Z,1023.88
2018-10-21T09:11:16.728Z,1023.87
2018-10-21T09:13:09.702Z,1023.88
2018-10-21T09:14:09.586Z,1023.87
2018-10-21T09:16:02.479Z,1023.79
2018-10-21T09:17:02.442Z,1023.74
2018-10-21T09:18:55.361Z,1023.70
2018-10-21T09:19:55.296Z,1023.63
2018-10-21T09:21:48.182Z,1023.67
2018-10-21T09:22:48.157Z,1023.67
2018-10-21T09:24:41.045Z,1023.64
2018-10-21T09:25:41.009Z,1023.64
2018-10-21T09:27:34.392Z,1023.65
2018-10-21T09:28:34.359Z,1023.57
2018-10-21T09:30:27.256Z,1023.62
2018-10-21T09:31:27.221Z,1023.60
2018-10-21T09:33:20.171Z,1023.62
2018-10-21T09:34:20.195Z,1023.63
2018-10-21T09:36:12.975Z,1023.61
2018-10-21T09:37:13.012Z,1023.58
2018-10-21T09:39:06.326Z,1023.59
2018-10-21T09:40:06.354Z,1023.54
2018-10-21T09:41:59.246Z,1023.54
2018-10-21T09:42:59.182Z,1023.51
2018-10-21T09:44:52.041Z,1023.50
2018-10-21T09:45:52.019Z,1023.49
2018-10-21T09:47:45.399Z,1023.47
2018-10-21T09:48:45.373Z,1023.43
2018-10-21T09:50:38.249Z,1023.45
2018-10-21T09:51:38.227Z,1023.46
2018-10-21T09:53:31.109Z,1023.46
2018-10-21T09:54:31.083Z,1023.42
2018-10-21T09:56:23.977Z,1023.43
2018-10-21T09:57:23.951Z,1023.41
2018-10-21T09:59:16.838Z,1023.39
2018-10-21T10:00:16.805Z,1023.39
2018-10-21T10:02:09.688Z,1023.35
2018-10-21T10:03:09.663Z,1023.36
2018-10-21T10:05:02.566Z,1023.37
2018-10-21T10:06:02.524Z,1023.37
2018-10-21T10:07:55.407Z,1023.31
2018-10-21T10:08:55.377Z,1023.29
2018-10-21T10:10:48.273Z,1023.28
2018-10-21T10:11:48.243Z,1023.30
2018-10-21T10:13:41.628Z,1023.24
2018-10-21T10:14:41.592Z,1023.25
2018-10-21T10:16:34.487Z,1023.22
2018-10-21T10:17:34.474Z,1023.23
2018-10-21T10:19:27.344Z,1023.22
2018-10-21T10:20:27.318Z,1023.16
2018-10-21T10:22:20.776Z,1023.18
2018-10-21T10:23:20.199Z,1023.19
2018-10-21T10:25:13.638Z,1023.17
2018-10-21T10:26:13.529Z,1023.13
2018-10-21T10:28:06.946Z,1023.12
2018-10-21T10:29:06.877Z,1023.09
2018-10-21T10:30:59.821Z,1023.11
2018-10-21T10:31:59.741Z,1023.12
2018-10-21T10:33:52.629Z,1023.12
2018-10-21T10:34:52.604Z,1023.10
2018-10-21T10:36:45.519Z,1023.11
2018-10-21T10:37:45.491Z,1023.07
2018-10-21T10:39:38.379Z,1023.04
2018-10-21T10:40:38.358Z,1023.03
2018-10-21T10:42:31.313Z,1023.05
2018-10-21T10:43:31.217Z,1023.03
2018-10-21T10:45:24.113Z,1023.00
2018-10-21T10:46:24.088Z,1023.03
2018-10-21T10:48:17.465Z,1022.93
2018-10-21T10:49:17.483Z,1023.00
2018-10-21T10:51:10.830Z,1022.95
2018-10-21T10:52:10.826Z,1022.97
2018-10-21T10:54:03.690Z,1022.96
2018-10-21T10:55:03.774Z,1022.99
2018-10-21T10:56:56.558Z,1023.00
2018-10-21T10:57:56.552Z,1022.97
2018-10-21T10:59:50.004Z,1022.92
2018-10-21T11:00:49.884Z,1022.91
2018-10-21T11:02:42.778Z,1022.95
2018-10-21T11:03:42.743Z,1022.89
2018-10-21T11:05:35.634Z,1022.85
2018-10-21T11:06:35.606Z,1022.85
2018-10-21T11:08:28.498Z,1022.76
2018-10-21T11:09:28.470Z,1022.74
2018-10-21T11:11:21.849Z,1022.66
2018-10-21T11:12:21.827Z,1022.67
2018-10-21T11:14:14.715Z,1022.68
2018-10-21T11:15:14.688Z,1022.67
2018-10-21T11:17:07.578Z,1022.67
2018-10-21T11:18:07.554Z,1022.63
2018-10-21T11:20:01.010Z,1022.64
2018-10-21T11:21:00.411Z,1022.69
2018-10-21T11:22:53.830Z,1022.69
2018-10-21T11:23:53.772Z,1022.67
2018-10-21T11:25:47.166Z,1022.58
2018-10-21T11:26:47.142Z,1022.60
2018-10-21T11:28:40.041Z,1022.55
2018-10-21T11:29:40.008Z,1022.55
2018-10-21T11:31:33.390Z,1022.56
2018-10-21T11:32:33.368Z,1022.51
2018-10-21T11:34:26.260Z,1022.53
2018-10-21T11:35:26.227Z,1022.54
2018-10-21T11:37:19.239Z,1022.52
2018-10-21T11:38:19.094Z,1022.45
2018-10-21T11:40:12.075Z,1022.43
2018-10-21T11:41:11.952Z,1022.46
2018-10-21T11:43:04.899Z,1022.41
2018-10-21T11:44:04.820Z,1022.44
2018-10-21T11:45:58.279Z,1022.36
2018-10-21T11:46:58.175Z,1022.40
2018-10-21T11:48:51.064Z,1022.33
2018-10-21T11:49:51.042Z,1022.28
2018-10-21T11:51:44.507Z,1022.31
2018-10-21T11:52:44.499Z,1022.29
2018-10-21T11:54:37.789Z,1022.27
2018-10-21T11:55:37.765Z,1022.24
2018-10-21T11:57:30.656Z,1022.27
2018-10-21T11:58:30.632Z,1022.28
2018-10-21T12:00:23.525Z,1022.26
2018-10-21T12:01:23.495Z,1022.25
2018-10-21T12:03:16.386Z,1022.22
2018-10-21T12:04:16.420Z,1022.23
2018-10-21T12:06:09.244Z,1022.20
2018-10-21T12:07:09.239Z,1022.18
2018-10-21T12:09:02.608Z,1022.14
2018-10-21T12:10:02.582Z,1022.14
2018-10-21T12:11:55.471Z,1022.12
2018-10-21T12:12:55.505Z,1022.08
2018-10-21T12:14:48.831Z,1022.15
2018-10-21T12:15:48.808Z,1022.10
2018-10-21T12:17:42.190Z,1022.10
2018-10-21T12:18:42.165Z,1022.03
2018-10-21T12:20:35.063Z,1022.01
2018-10-21T12:21:35.033Z,1022.01
2018-10-21T12:23:27.951Z,1022.02
2018-10-21T12:24:27.909Z,1021.99
2018-10-21T12:26:20.792Z,1022.02
2018-10-21T12:27:20.767Z,1021.97
2018-10-21T12:29:14.198Z,1021.99
2018-10-21T12:30:14.125Z,1021.94
2018-10-21T12:32:07.018Z,1021.93
2018-10-21T12:33:06.992Z,1021.93
2018-10-21T12:35:00.409Z,1021.92
2018-10-21T12:36:00.356Z,1021.97
2018-10-21T12:37:53.745Z,1021.95
2018-10-21T12:38:53.714Z,1021.90
2018-10-21T12:40:47.091Z,1021.83
2018-10-21T12:41:47.075Z,1021.83
2018-10-21T12:43:39.970Z,1021.82
2018-10-21T12:44:39.935Z,1021.78
2018-10-21T12:46:33.025Z,1021.79
2018-10-21T12:47:33.004Z,1021.75
2018-10-21T12:49:25.899Z,1021.72
2018-10-21T12:50:25.871Z,1021.69
2018-10-21T12:52:18.766Z,1021.68
2018-10-21T12:53:18.742Z,1021.70
2018-10-21T12:55:11.750Z,1021.68
2018-10-21T12:56:11.603Z,1021.63
2018-10-21T12:58:04.536Z,1021.65
2018-10-21T12:59:04.470Z,1021.65
2018-10-21T13:00:57.380Z,1021.61
2018-10-21T13:01:57.343Z,1021.65
2018-10-21T13:03:50.232Z,1021.63
2018-10-21T13:04:50.202Z,1021.64
2018-10-21T13:06:43.091Z,1021.63
2018-10-21T13:07:43.065Z,1021.64
2018-10-21T13:09:36.451Z,1021.62
2018-10-21T13:10:36.429Z,1021.61
2018-10-21T13:12:29.318Z,1021.61
2018-10-21T13:13:29.396Z,1021.58
2018-10-21T13:15:22.188Z,1021.56
2018-10-21T13:16:22.162Z,1021.58
2018-10-21T13:18:15.049Z,1021.56
2018-10-21T13:19:15.055Z,1021.53
2018-10-21T13:21:08.410Z,1021.54
2018-10-21T13:22:08.417Z,1021.57
2018-10-21T13:24:01.281Z,1021.58
2018-10-21T13:25:01.304Z,1021.54
2018-10-21T13:26:54.184Z,1021.59
2018-10-21T13:27:54.175Z,1021.54
2018-10-21T13:29:47.005Z,1021.57
2018-10-21T13:30:46.980Z,1021.52
2018-10-21T13:32:39.880Z,1021.52
2018-10-21T13:33:39.850Z,1021.48
2018-10-21T13:35:32.741Z,1021.53
2018-10-21T13:36:32.721Z,1021.48
2018-10-21T13:38:25.618Z,1021.48
2018-10-21T13:39:25.588Z,1021.46
2018-10-21T13:41:18.486Z,1021.47
2018-10-21T13:42:18.464Z,1021.49
2018-10-21T13:44:11.838Z,1021.42
2018-10-21T13:45:11.816Z,1021.43
2018-10-21T13:47:05.199Z,1021.40
2018-10-21T13:48:05.179Z,1021.37
2018-10-21T13:49:58.562Z,1021.36
2018-10-21T13:50:58.538Z,1021.32
2018-10-21T13:52:51.481Z,1021.29
2018-10-21T13:53:51.403Z,1021.29
2018-10-21T13:55:44.791Z,1021.26
2018-10-21T13:56:44.760Z,1021.25
2018-10-21T13:58:37.659Z,1021.24
2018-10-21T13:59:37.635Z,1021.21
2018-10-21T14:01:30.590Z,1021.21
2018-10-21T14:02:30.517Z,1021.21
2018-10-21T14:04:23.891Z,1021.17
2018-10-21T14:05:23.866Z,1021.19
2018-10-21T14:07:16.791Z,1021.17
2018-10-21T14:08:16.736Z,1021.16
2018-10-21T14:10:10.124Z,1021.19
2018-10-21T14:11:10.101Z,1021.18
2018-10-21T14:13:03.038Z,1021.17
2018-10-21T14:14:02.960Z,1021.17
2018-10-21T14:15:56.367Z,1021.17
2018-10-21T14:16:56.324Z,1021.19
2018-10-21T14:18:49.724Z,1021.11
2018-10-21T14:19:49.687Z,1021.13
2018-10-21T14:21:43.079Z,1021.10
2018-10-21T14:22:43.057Z,1021.07
2018-10-21T14:24:36.007Z,1021.04
2018-10-21T14:25:35.918Z,1020.99
2018-10-21T14:27:28.815Z,1020.96
2018-10-21T14:28:28.785Z,1020.93
2018-10-21T14:30:22.189Z,1020.92
2018-10-21T14:31:22.146Z,1020.96
2018-10-21T14:33:15.091Z,1020.89
2018-10-21T14:34:15.012Z,1020.89
2018-10-21T14:36:07.960Z,1020.85
2018-10-21T14:37:07.881Z,1020.83
2018-10-21T14:39:00.801Z,1020.81
2018-10-21T14:40:00.743Z,1020.83
2018-10-21T14:41:54.129Z,1020.80
2018-10-21T14:42:54.104Z,1020.80
2018-10-21T14:44:47.487Z,1020.78
2018-10-21T14:45:47.540Z,1020.78
2018-10-21T14:47:40.847Z,1020.75
2018-10-21T14:48:40.818Z,1020.71
2018-10-21T14:50:34.200Z,1020.68
2018-10-21T14:51:34.177Z,1020.68
2018-10-21T14:53:27.071Z,1020.66
2018-10-21T14:54:27.041Z,1020.64
2018-10-21T14:56:20.435Z,1020.60
2018-10-21T14:57:20.401Z,1020.62
2018-10-21T14:59:13.788Z,1020.62
2018-10-21T15:00:13.888Z,1020.59
2018-10-21T15:02:06.688Z,1020.53
2018-10-21T15:03:06.688Z,1020.58
2018-10-21T15:04:59.526Z,1020.57
2018-10-21T15:05:59.501Z,1020.58
2018-10-21T15:07:52.380Z,1020.55
2018-10-21T15:08:52.360Z,1020.56
2018-10-21T15:10:45.254Z,1020.58
2018-10-21T15:11:45.224Z,1020.55
2018-10-21T15:13:38.121Z,1020.61
2018-10-21T15:14:38.096Z,1020.53
2018-10-21T15:16:31.498Z,1020.54
2018-10-21T15:17:31.452Z,1020.53
2018-10-21T15:19:24.835Z,1020.47
2018-10-21T15:20:24.813Z,1020.45
2018-10-21T15:22:17.770Z,1020.43
2018-10-21T15:23:17.729Z,1020.42
2018-10-21T15:25:11.062Z,1020.41
2018-10-21T15:26:11.106Z,1020.36
2018-10-21T15:28:04.432Z,1020.37
2018-10-21T15:29:04.421Z,1020.34
2018-10-21T15:30:57.279Z,1020.33
2018-10-21T15:31:57.263Z,1020.30
2018-10-21T15:33:50.155Z,1020.29
2018-10-21T15:34:50.218Z,1020.27
2018-10-21T15:36:43.019Z,1020.23
2018-10-21T15:37:42.995Z,1020.25
2018-10-21T15:39:36.384Z,1020.21
2018-10-21T15:40:36.351Z,1020.18
2018-10-21T15:42:29.756Z,1020.18
2018-10-21T15:43:29.708Z,1020.18
2018-10-21T15:45:22.608Z,1020.17
2018-10-21T15:46:22.623Z,1020.16
2018-10-21T15:48:15.473Z,1020.16
2018-10-21T15:49:15.441Z,1020.21
2018-10-21T15:51:08.833Z,1020.16
2018-10-21T15:52:08.810Z,1020.13
2018-10-21T15:54:01.692Z,1020.15
2018-10-21T15:55:01.681Z,1020.13
2018-10-21T15:56:54.567Z,1020.12
2018-10-21T15:57:54.593Z,1020.16
2018-10-21T15:59:47.975Z,1020.12
2018-10-21T16:00:47.950Z,1020.16
2018-10-21T16:02:40.874Z,1020.12
2018-10-21T16:03:40.783Z,1020.07
2018-10-21T16:05:33.679Z,1020.06
2018-10-21T16:06:33.649Z,1020.10
2018-10-21T16:08:27.031Z,1020.06
2018-10-21T16:09:27.008Z,1020.08
2018-10-21T16:11:20.404Z,1020.10
2018-10-21T16:12:20.372Z,1020.08
2018-10-21T16:14:14.314Z,1020.10
2018-10-21T16:15:14.285Z,1020.13
2018-10-21T16:17:07.677Z,1020.15
2018-10-21T16:18:07.648Z,1020.13
2018-10-21T16:20:00.575Z,1020.13
2018-10-21T16:21:00.511Z,1020.11
2018-10-21T16:22:53.397Z,1020.13
2018-10-21T16:23:53.379Z,1020.11
2018-10-21T16:25:46.403Z,1020.13
2018-10-21T16:26:46.244Z,1020.17
2018-10-21T16:28:39.621Z,1020.14
2018-10-21T16:29:39.593Z,1020.15
2018-10-21T16:31:32.483Z,1020.15
2018-10-21T16:32:32.510Z,1020.20
2018-10-21T16:34:25.350Z,1020.19
2018-10-21T16:35:25.320Z,1020.18
2018-10-21T16:37:18.714Z,1020.20
2018-10-21T16:38:18.694Z,1020.17
2018-10-21T16:40:12.055Z,1020.15
2018-10-21T16:41:12.032Z,1020.14
2018-10-21T16:43:05.410Z,1020.13
2018-10-21T16:44:05.383Z,1020.17
2018-10-21T16:45:58.842Z,1020.18
2018-10-21T16:46:58.243Z,1020.23
2018-10-21T16:48:51.129Z,1020.26
2018-10-21T16:49:51.109Z,1020.26
2018-10-21T16:51:44.002Z,1020.28
2018-10-21T16:52:43.979Z,1020.32
2018-10-21T16:54:36.926Z,1020.32
2018-10-21T16:55:36.839Z,1020.33
2018-10-21T16:57:30.278Z,1020.35
2018-10-21T16:58:30.188Z,1020.33
2018-10-21T17:00:23.774Z,1020.33
2018-10-21T17:01:23.544Z,1020.33
2018-10-21T17:03:16.449Z,1020.35
2018-10-21T17:04:16.414Z,1020.38
2018-10-21T17:06:09.784Z,1020.44
2018-10-21T17:07:09.836Z,1020.43
2018-10-21T17:09:02.669Z,1020.43
2018-10-21T17:10:02.979Z,1020.41
2018-10-21T17:11:55.515Z,1020.41
2018-10-21T17:12:55.500Z,1020.37
2018-10-21T17:14:48.374Z,1020.41
2018-10-21T17:15:48.342Z,1020.39
2018-10-21T17:17:41.726Z,1020.39
2018-10-21T17:18:41.697Z,1020.37
2018-10-21T17:20:34.585Z,1020.34
2018-10-21T17:21:34.547Z,1020.38
2018-10-21T17:23:27.932Z,1020.36
2018-10-21T17:24:27.901Z,1020.34
2018-10-21T17:26:20.797Z,1020.37